sensor_id;sensor_type;location;lat;lon;timestamp;pressure;altitude;pressure_sealevel;temperature;humidity
50590;BME280;36547;50.514;30.840;2024-03-08T00:00:08;100929.77;;;-1.62;70.00
50590;BME280;36547;50.514;30.840;2024-03-08T00:01:13;100927.08;;;-1.68;70.03
50590;BME280;36547;50.514;30.840;2024-03-08T00:02:15;100926.20;;;-1.69;69.95
50590;BME280;36547;50.514;30.840;2024-03-08T00:03:17;100926.25;;;-1.66;69.96
50590;BME280;36547;50.514;30.840;2024-03-08T00:04:20;100938.42;;;-1.65;69.93
50590;BME280;36547;50.514;30.840;2024-03-08T00:05:23;100935.85;;;-1.62;69.86
50590;BME280;36547;50.514;30.840;2024-03-08T00:06:25;100930.60;;;-1.65;69.96
50590;BME280;36547;50.514;30.840;2024-03-08T00:07:28;100933.17;;;-1.68;69.88
50590;BME280;36547;50.514;30.840;2024-03-08T00:08:30;100934.92;;;-1.67;70.00
50590;BME280;36547;50.514;30.840;2024-03-08T00:09:33;100927.08;;;-1.68;69.91
50590;BME280;36547;50.514;30.840;2024-03-08T00:10:35;100926.17;;;-1.72;70.02
50590;BME280;36547;50.514;30.840;2024-03-08T00:11:38;100925.30;;;-1.72;70.04
50590;BME280;36547;50.514;30.840;2024-03-08T00:12:43;100925.31;;;-1.74;70.02
50590;BME280;36547;50.514;30.840;2024-03-08T00:13:45;100926.16;;;-1.75;70.13
50590;BME280;36547;50.514;30.840;2024-03-08T00:14:47;100927.88;;;-1.77;70.12
50590;BME280;36547;50.514;30.840;2024-03-08T00:15:50;100920.91;;;-1.78;70.08
50590;BME280;36547;50.514;30.840;2024-03-08T00:16:52;100924.38;;;-1.79;70.15
50590;BME280;36547;50.514;30.840;2024-03-08T00:17:54;100918.30;;;-1.80;70.23
50590;BME280;36547;50.514;30.840;2024-03-08T00:18:57;100915.67;;;-1.81;70.17
50590;BME280;36547;50.514;30.840;2024-03-08T00:19:59;100918.27;;;-1.81;70.14
50590;BME280;36547;50.514;30.840;2024-03-08T00:21:01;100913.06;;;-1.81;70.14
50590;BME280;36547;50.514;30.840;2024-03-08T00:22:04;100917.38;;;-1.83;70.23
50590;BME280;36547;50.514;30.840;2024-03-08T00:23:07;100915.67;;;-1.81;70.22
50590;BME280;36547;50.514;30.840;2024-03-08T00:24:09;100911.28;;;-1.85;70.19
50590;BME280;36547;50.514;30.840;2024-03-08T00:25:11;100911.30;;;-1.84;70.22
50590;BME280;36547;50.514;30.840;2024-03-08T00:26:14;100909.59;;;-1.82;70.22
50590;BME280;36547;50.514;30.840;2024-03-08T00:27:16;100908.67;;;-1.85;70.28
50590;BME280;36547;50.514;30.840;2024-03-08T00:28:19;100907.84;;;-1.83;70.31
50590;BME280;36547;50.514;30.840;2024-03-08T00:29:21;100907.00;;;-1.80;70.36
50590;BME280;36547;50.514;30.840;2024-03-08T00:30:23;100911.35;;;-1.79;70.29
50590;BME280;36547;50.514;30.840;2024-03-08T00:31:26;100905.29;;;-1.78;70.29
50590;BME280;36547;50.514;30.840;2024-03-08T00:32:29;100908.79;;;-1.76;70.26
50590;BME280;36547;50.514;30.840;2024-03-08T00:33:31;100907.89;;;-1.78;70.18
50590;BME280;36547;50.514;30.840;2024-03-08T00:34:35;100903.58;;;-1.76;70.18
50590;BME280;36547;50.514;30.840;2024-03-08T00:35:38;100901.83;;;-1.77;69.99
50590;BME280;36547;50.514;30.840;2024-03-08T00:36:40;100901.79;;;-1.80;70.08
50590;BME280;36547;50.514;30.840;2024-03-08T00:37:43;100898.35;;;-1.77;70.22
50590;BME280;36547;50.514;30.840;2024-03-08T00:38:45;100895.73;;;-1.79;70.28
50590;BME280;36547;50.514;30.840;2024-03-08T00:39:49;100891.41;;;-1.77;70.37
50590;BME280;36547;50.514;30.840;2024-03-08T00:40:58;100895.02;;;-1.63;70.38
50590;BME280;36547;50.514;30.840;2024-03-08T00:42:01;100896.58;;;-1.80;70.64
50590;BME280;36547;50.514;30.840;2024-03-08T00:43:03;100893.12;;;-1.79;70.53
50590;BME280;36547;50.514;30.840;2024-03-08T00:44:05;100887.93;;;-1.77;70.52
50590;BME280;36547;50.514;30.840;2024-03-08T00:45:09;100899.20;;;-1.79;70.50
50590;BME280;36547;50.514;30.840;2024-03-08T00:46:12;100887.91;;;-1.79;70.57
50590;BME280;36547;50.514;30.840;2024-03-08T00:47:14;100896.58;;;-1.80;70.59
50590;BME280;36547;50.514;30.840;2024-03-08T00:48:16;100897.48;;;-1.78;70.48
50590;BME280;36547;50.514;30.840;2024-03-08T00:49:18;100891.41;;;-1.77;70.42
50590;BME280;36547;50.514;30.840;2024-03-08T00:50:21;100894.91;;;-1.75;70.33
50590;BME280;36547;50.514;30.840;2024-03-08T00:51:23;100891.43;;;-1.75;70.36
50590;BME280;36547;50.514;30.840;2024-03-08T00:52:25;100885.36;;;-1.74;70.22
50590;BME280;36547;50.514;30.840;2024-03-08T00:53:27;100887.11;;;-1.73;70.15
50590;BME280;36547;50.514;30.840;2024-03-08T00:54:30;100893.20;;;-1.70;70.22
50590;BME280;36547;50.514;30.840;2024-03-08T00:55:34;100890.58;;;-1.71;70.16
50590;BME280;36547;50.514;30.840;2024-03-08T00:56:36;100892.34;;;-1.69;70.22
50590;BME280;36547;50.514;30.840;2024-03-08T00:57:39;100889.70;;;-1.72;70.00
50590;BME280;36547;50.514;30.840;2024-03-08T00:58:41;100890.56;;;-1.73;70.12
50590;BME280;36547;50.514;30.840;2024-03-08T00:59:44;100886.23;;;-1.74;70.19
50590;BME280;36547;50.514;30.840;2024-03-08T01:00:47;100890.55;;;-1.76;70.20
50590;BME280;36547;50.514;30.840;2024-03-08T01:01:50;100885.36;;;-1.74;70.20
50590;BME280;36547;50.514;30.840;2024-03-08T01:02:53;100887.95;;;-1.76;70.27
50590;BME280;36547;50.514;30.840;2024-03-08T01:03:55;100882.74;;;-1.76;70.31
50590;BME280;36547;50.514;30.840;2024-03-08T01:04:57;100882.74;;;-1.76;70.27
50590;BME280;36547;50.514;30.840;2024-03-08T01:06:00;100880.99;;;-1.77;70.22
50590;BME280;36547;50.514;30.840;2024-03-08T01:07:02;100880.99;;;-1.77;70.25
50590;BME280;36547;50.514;30.840;2024-03-08T01:08:05;100887.11;;;-1.73;70.21
50590;BME280;36547;50.514;30.840;2024-03-08T01:09:07;100882.74;;;-1.76;70.18
50590;BME280;36547;50.514;30.840;2024-03-08T01:10:10;100882.72;;;-1.77;70.19
50590;BME280;36547;50.514;30.840;2024-03-08T01:11:13;100877.49;;;-1.79;70.22
50590;BME280;36547;50.514;30.840;2024-03-08T01:12:15;100883.56;;;-1.80;70.21
50590;BME280;36547;50.514;30.840;2024-03-08T01:13:18;100882.69;;;-1.81;70.29
50590;BME280;36547;50.514;30.840;2024-03-08T01:14:21;100879.20;;;-1.81;70.31
50590;BME280;36547;50.514;30.840;2024-03-08T01:15:24;100879.24;;;-1.78;70.28
50590;BME280;36547;50.514;30.840;2024-03-08T01:16:26;100874.85;;;-1.82;70.33
50590;BME280;36547;50.514;30.840;2024-03-08T01:17:29;100878.33;;;-1.82;70.38
50590;BME280;36547;50.514;30.840;2024-03-08T01:18:31;100873.12;;;-1.82;70.35
50590;BME280;36547;50.514;30.840;2024-03-08T01:19:34;100877.45;;;-1.82;70.35
50590;BME280;36547;50.514;30.840;2024-03-08T01:20:37;100878.35;;;-1.80;70.41
50590;BME280;36547;50.514;30.840;2024-03-08T01:21:40;100874.03;;;-1.78;70.45
50590;BME280;36547;50.514;30.840;2024-03-08T01:22:43;100875.75;;;-1.80;70.42
50590;BME280;36547;50.514;30.840;2024-03-08T01:23:45;100878.37;;;-1.79;70.40
50590;BME280;36547;50.514;30.840;2024-03-08T01:24:47;100870.55;;;-1.79;70.35
50590;BME280;36547;50.514;30.840;2024-03-08T01:25:50;100877.49;;;-1.79;70.36
50590;BME280;36547;50.514;30.840;2024-03-08T01:26:52;100870.55;;;-1.79;70.26
50590;BME280;36547;50.514;30.840;2024-03-08T01:28:53;100871.56;;;-1.64;70.17
50590;BME280;36547;50.514;30.840;2024-03-08T01:29:56;100870.55;;;-1.79;70.08
50590;BME280;36547;50.514;30.840;2024-03-08T01:30:59;100872.28;;;-1.79;70.06
50590;BME280;36547;50.514;30.840;2024-03-08T01:32:02;100870.59;;;-1.75;70.02
50590;BME280;36547;50.514;30.840;2024-03-08T01:33:05;100874.03;;;-1.78;69.92
50590;BME280;36547;50.514;30.840;2024-03-08T01:34:07;100871.48;;;-1.73;69.91
50590;BME280;36547;50.514;30.840;2024-03-08T01:35:09;100875.78;;;-1.77;69.77
50590;BME280;36547;50.514;30.840;2024-03-08T01:36:12;100872.28;;;-1.79;69.77
50590;BME280;36547;50.514;30.840;2024-03-08T01:37:14;100880.06;;;-1.82;69.85
50590;BME280;36547;50.514;30.840;2024-03-08T01:38:17;100873.06;;;-1.86;69.96
50590;BME280;36547;50.514;30.840;2024-03-08T01:39:19;100875.62;;;-1.92;70.11
50590;BME280;36547;50.514;30.840;2024-03-08T01:40:21;100872.13;;;-1.94;70.09
50590;BME280;36547;50.514;30.840;2024-03-08T01:41:24;100866.01;;;-1.98;70.18
50590;BME280;36547;50.514;30.840;2024-03-08T01:42:26;100862.53;;;-1.98;70.30
50590;BME280;36547;50.514;30.840;2024-03-08T01:43:29;100867.72;;;-2.00;70.38
50590;BME280;36547;50.514;30.840;2024-03-08T01:44:31;100866.84;;;-2.00;70.46
50590;BME280;36547;50.514;30.840;2024-03-08T01:45:33;100862.48;;;-2.04;70.56
50590;BME280;36547;50.514;30.840;2024-03-08T01:46:36;100858.09;;;-2.08;70.37
50590;BME280;36547;50.514;30.840;2024-03-08T01:47:38;100854.59;;;-2.10;70.53
50590;BME280;36547;50.514;30.840;2024-03-08T01:48:41;100863.30;;;-2.08;70.58
50590;BME280;36547;50.514;30.840;2024-03-08T01:49:44;100858.11;;;-2.07;70.64
50590;BME280;36547;50.514;30.840;2024-03-08T01:50:47;100865.01;;;-2.10;70.66
50590;BME280;36547;50.514;30.840;2024-03-08T01:51:49;100858.95;;;-2.09;70.69
50590;BME280;36547;50.514;30.840;2024-03-08T01:52:52;100853.74;;;-2.09;70.67
50590;BME280;36547;50.514;30.840;2024-03-08T01:53:55;100853.76;;;-2.08;70.66
50590;BME280;36547;50.514;30.840;2024-03-08T01:55:01;100858.13;;;-2.05;70.69
50590;BME280;36547;50.514;30.840;2024-03-08T01:56:06;100851.17;;;-2.06;70.67
50590;BME280;36547;50.514;30.840;2024-03-08T01:57:09;100849.43;;;-2.07;70.62
50590;BME280;36547;50.514;30.840;2024-03-08T01:58:12;100850.28;;;-2.08;70.58
50590;BME280;36547;50.514;30.840;2024-03-08T01:59:15;100850.32;;;-2.05;70.68
50590;BME280;36547;50.514;30.840;2024-03-08T02:00:18;100845.16;;;-2.02;70.67
50590;BME280;36547;50.514;30.840;2024-03-08T02:01:22;100852.08;;;-2.01;70.67
50590;BME280;36547;50.514;30.840;2024-03-08T02:02:25;100849.49;;;-2.00;70.65
50590;BME280;36547;50.514;30.840;2024-03-08T02:03:28;100852.97;;;-1.99;70.60
50590;BME280;36547;50.514;30.840;2024-03-08T02:04:30;100846.89;;;-2.00;70.58
50590;BME280;36547;50.514;30.840;2024-03-08T02:05:32;100846.89;;;-2.00;70.66
50590;BME280;36547;50.514;30.840;2024-03-08T02:06:35;100853.84;;;-1.99;70.71
50590;BME280;36547;50.514;30.840;2024-03-08T02:07:38;100852.97;;;-2.02;70.69
50590;BME280;36547;50.514;30.840;2024-03-08T02:08:43;100848.59;;;-2.02;70.78
50590;BME280;36547;50.514;30.840;2024-03-08T02:09:45;100842.55;;;-2.02;70.79
50590;BME280;36547;50.514;30.840;2024-03-08T02:10:48;100844.27;;;-2.04;70.85
50590;BME280;36547;50.514;30.840;2024-03-08T02:11:51;100851.22;;;-2.03;70.82
50590;BME280;36547;50.514;30.840;2024-03-08T02:12:55;100848.59;;;-2.05;70.87
50590;BME280;36547;50.514;30.840;2024-03-08T02:13:58;100845.11;;;-2.05;70.87
50590;BME280;36547;50.514;30.840;2024-03-08T02:15:00;100843.41;;;-2.03;70.89
50590;BME280;36547;50.514;30.840;2024-03-08T02:16:03;100854.67;;;-2.04;70.90
50590;BME280;36547;50.514;30.840;2024-03-08T02:17:05;100845.11;;;-2.05;70.86
50590;BME280;36547;50.514;30.840;2024-03-08T02:18:07;100846.01;;;-2.03;70.92
50590;BME280;36547;50.514;30.840;2024-03-08T02:19:09;100843.36;;;-2.06;70.97
50590;BME280;36547;50.514;30.840;2024-03-08T02:20:12;100853.78;;;-2.06;70.94
50590;BME280;36547;50.514;30.840;2024-03-08T02:21:17;100845.08;;;-2.08;70.95
50590;BME280;36547;50.514;30.840;2024-03-08T02:22:20;100850.28;;;-2.08;71.05
50590;BME280;36547;50.514;30.840;2024-03-08T02:23:23;100848.53;;;-2.09;71.02
50590;BME280;36547;50.514;30.840;2024-03-08T02:24:26;100837.23;;;-2.11;71.09
50590;BME280;36547;50.514;30.840;2024-03-08T02:25:31;100841.49;;;-2.20;71.18
50590;BME280;36547;50.514;30.840;2024-03-08T02:26:33;100837.14;;;-2.21;71.26
50590;BME280;36547;50.514;30.840;2024-03-08T02:27:36;100843.20;;;-2.22;71.17
50590;BME280;36547;50.514;30.840;2024-03-08T02:28:38;100839.70;;;-2.24;71.18
50590;BME280;36547;50.514;30.840;2024-03-08T02:29:42;100832.73;;;-2.26;71.11
50590;BME280;36547;50.514;30.840;2024-03-08T02:30:47;100836.25;;;-2.23;71.21
50590;BME280;36547;50.514;30.840;2024-03-08T02:31:53;100835.39;;;-2.22;71.22
50590;BME280;36547;50.514;30.840;2024-03-08T02:32:55;100837.14;;;-2.21;71.13
50590;BME280;36547;50.514;30.840;2024-03-08T02:33:58;100831.94;;;-2.21;71.08
50590;BME280;36547;50.514;30.840;2024-03-08T02:35:00;100830.16;;;-2.23;70.90
50590;BME280;36547;50.514;30.840;2024-03-08T02:36:03;100833.64;;;-2.23;70.92
50590;BME280;36547;50.514;30.840;2024-03-08T02:37:06;100827.56;;;-2.23;70.87
50590;BME280;36547;50.514;30.840;2024-03-08T02:38:08;100826.65;;;-2.27;70.96
50590;BME280;36547;50.514;30.840;2024-03-08T02:39:11;100821.41;;;-2.30;70.98
50590;BME280;36547;50.514;30.840;2024-03-08T02:40:14;100826.61;;;-2.30;71.02
50590;BME280;36547;50.514;30.840;2024-03-08T02:41:16;100830.09;;;-2.29;71.11
50590;BME280;36547;50.514;30.840;2024-03-08T02:42:18;100826.61;;;-2.30;71.16
50590;BME280;36547;50.514;30.840;2024-03-08T02:43:22;100824.00;;;-2.30;71.17
50590;BME280;36547;50.514;30.840;2024-03-08T02:44:24;100823.15;;;-2.32;71.20
50590;BME280;36547;50.514;30.840;2024-03-08T02:45:26;100820.53;;;-2.30;71.18
50590;BME280;36547;50.514;30.840;2024-03-08T02:46:29;100821.41;;;-2.30;71.19
50590;BME280;36547;50.514;30.840;2024-03-08T02:47:31;100820.55;;;-2.29;71.09
50590;BME280;36547;50.514;30.840;2024-03-08T02:48:34;100820.55;;;-2.29;71.10
50590;BME280;36547;50.514;30.840;2024-03-08T02:49:37;100820.55;;;-2.29;71.07
50590;BME280;36547;50.514;30.840;2024-03-08T02:50:39;100821.42;;;-2.28;71.14
50590;BME280;36547;50.514;30.840;2024-03-08T02:51:41;100826.65;;;-2.27;71.13
50590;BME280;36547;50.514;30.840;2024-03-08T02:52:43;100822.30;;;-2.28;71.15
50590;BME280;36547;50.514;30.840;2024-03-08T02:53:45;100817.95;;;-2.29;71.10
50590;BME280;36547;50.514;30.840;2024-03-08T02:54:48;100816.22;;;-2.28;71.17
50590;BME280;36547;50.514;30.840;2024-03-08T02:55:50;100810.13;;;-2.30;71.18
50590;BME280;36547;50.514;30.840;2024-03-08T02:56:54;100817.08;;;-2.29;71.21
50590;BME280;36547;50.514;30.840;2024-03-08T02:57:57;100815.34;;;-2.29;71.26
50590;BME280;36547;50.514;30.840;2024-03-08T02:58:59;100814.49;;;-2.28;71.19
50590;BME280;36547;50.514;30.840;2024-03-08T03:00:01;100814.47;;;-2.29;71.22
50590;BME280;36547;50.514;30.840;2024-03-08T03:01:03;100811.84;;;-2.31;71.19
50590;BME280;36547;50.514;30.840;2024-03-08T03:02:06;100811.00;;;-2.30;71.21
50590;BME280;36547;50.514;30.840;2024-03-08T03:03:08;100812.74;;;-2.29;71.25
50590;BME280;36547;50.514;30.840;2024-03-08T03:04:11;100811.03;;;-2.27;71.29
50590;BME280;36547;50.514;30.840;2024-03-08T03:05:13;100815.41;;;-2.24;71.23
50590;BME280;36547;50.514;30.840;2024-03-08T03:06:15;100809.30;;;-2.26;71.13
50590;BME280;36547;50.514;30.840;2024-03-08T03:07:17;100810.16;;;-2.27;71.09
50590;BME280;36547;50.514;30.840;2024-03-08T03:08:19;100813.64;;;-2.27;71.03
50590;BME280;36547;50.514;30.840;2024-03-08T03:09:21;100810.16;;;-2.27;70.97
50590;BME280;36547;50.514;30.840;2024-03-08T03:10:24;100815.34;;;-2.29;71.06
50590;BME280;36547;50.514;30.840;2024-03-08T03:11:26;100811.89;;;-2.28;71.10
50590;BME280;36547;50.514;30.840;2024-03-08T03:12:28;100808.41;;;-2.28;71.12
50590;BME280;36547;50.514;30.840;2024-03-08T03:13:31;100814.49;;;-2.28;71.09
50590;BME280;36547;50.514;30.840;2024-03-08T03:14:35;100811.03;;;-2.27;71.08
50590;BME280;36547;50.514;30.840;2024-03-08T03:15:38;100805.83;;;-2.27;71.03
50590;BME280;36547;50.514;30.840;2024-03-08T03:16:40;100811.89;;;-2.28;70.97
50590;BME280;36547;50.514;30.840;2024-03-08T03:17:48;100811.89;;;-2.28;70.93
50590;BME280;36547;50.514;30.840;2024-03-08T03:18:57;100799.87;;;-2.15;70.99
50590;BME280;36547;50.514;30.840;2024-03-08T03:19:59;100801.38;;;-2.38;71.14
50590;BME280;36547;50.514;30.840;2024-03-08T03:21:01;100804.02;;;-2.35;71.20
50590;BME280;36547;50.514;30.840;2024-03-08T03:22:04;100798.81;;;-2.35;71.19
50590;BME280;36547;50.514;30.840;2024-03-08T03:23:06;100795.31;;;-2.37;71.14
50590;BME280;36547;50.514;30.840;2024-03-08T03:24:09;100796.20;;;-2.35;71.18
50590;BME280;36547;50.514;30.840;2024-03-08T03:25:12;100795.33;;;-2.36;71.23
50590;BME280;36547;50.514;30.840;2024-03-08T03:26:15;100787.51;;;-2.37;71.18
50590;BME280;36547;50.514;30.840;2024-03-08T03:27:17;100792.75;;;-2.34;71.10
50590;BME280;36547;50.514;30.840;2024-03-08T03:28:20;100791.92;;;-2.29;71.12
50590;BME280;36547;50.514;30.840;2024-03-08T03:29:22;100791.05;;;-2.32;71.04
50590;BME280;36547;50.514;30.840;2024-03-08T03:30:25;100788.42;;;-2.31;70.96
50590;BME280;36547;50.514;30.840;2024-03-08T03:31:27;100791.92;;;-2.29;70.95
50590;BME280;36547;50.514;30.840;2024-03-08T03:32:29;100793.67;;;-2.28;70.95
50590;BME280;36547;50.514;30.840;2024-03-08T03:33:32;100791.06;;;-2.28;70.77
50590;BME280;36547;50.514;30.840;2024-03-08T03:34:35;100788.47;;;-2.28;70.92
50590;BME280;36547;50.514;30.840;2024-03-08T03:35:37;100798.00;;;-2.28;70.89
50590;BME280;36547;50.514;30.840;2024-03-08T03:36:41;100793.67;;;-2.28;70.80
50590;BME280;36547;50.514;30.840;2024-03-08T03:37:43;100787.58;;;-2.30;70.81
50590;BME280;36547;50.514;30.840;2024-03-08T03:38:45;100792.77;;;-2.33;70.68
50590;BME280;36547;50.514;30.840;2024-03-08T03:39:47;100796.23;;;-2.34;70.60
50590;BME280;36547;50.514;30.840;2024-03-08T03:40:50;100796.17;;;-2.38;70.46
50590;BME280;36547;50.514;30.840;2024-03-08T03:41:52;100797.05;;;-2.38;70.41
50590;BME280;36547;50.514;30.840;2024-03-08T03:42:55;100792.69;;;-2.39;70.36
50590;BME280;36547;50.514;30.840;2024-03-08T03:43:58;100788.34;;;-2.40;70.39
50590;BME280;36547;50.514;30.840;2024-03-08T03:45:00;100793.59;;;-2.37;70.40
50590;BME280;36547;50.514;30.840;2024-03-08T03:46:07;100796.15;;;-2.40;70.39
50590;BME280;36547;50.514;30.840;2024-03-08T03:47:10;100796.96;;;-2.44;70.38
50590;BME280;36547;50.514;30.840;2024-03-08T03:48:12;100790.02;;;-2.46;70.32
50590;BME280;36547;50.514;30.840;2024-03-08T03:49:14;100795.20;;;-2.48;70.19
50590;BME280;36547;50.514;30.840;2024-03-08T03:50:18;100784.72;;;-2.54;70.18
50590;BME280;36547;50.514;30.840;2024-03-08T03:51:21;100790.80;;;-2.54;70.30
50590;BME280;36547;50.514;30.840;2024-03-08T03:52:23;100788.12;;;-2.58;70.33
50590;BME280;36547;50.514;30.840;2024-03-08T03:53:25;100789.00;;;-2.58;70.41
50590;BME280;36547;50.514;30.840;2024-03-08T03:54:28;100788.17;;;-2.55;70.41
50590;BME280;36547;50.514;30.840;2024-03-08T03:55:31;100782.09;;;-2.56;70.66
50590;BME280;36547;50.514;30.840;2024-03-08T03:56:33;100790.77;;;-2.55;70.68
50590;BME280;36547;50.514;30.840;2024-03-08T03:57:36;100784.67;;;-2.57;70.43
50590;BME280;36547;50.514;30.840;2024-03-08T03:58:38;100789.00;;;-2.58;70.26
50590;BME280;36547;50.514;30.840;2024-03-08T03:59:40;100793.32;;;-2.61;70.17
50590;BME280;36547;50.514;30.840;2024-03-08T04:00:43;100785.50;;;-2.63;70.12
50590;BME280;36547;50.514;30.840;2024-03-08T04:01:45;100779.41;;;-2.65;70.27
50590;BME280;36547;50.514;30.840;2024-03-08T04:02:47;100784.60;;;-2.65;70.32
50590;BME280;36547;50.514;30.840;2024-03-08T04:03:50;100783.73;;;-2.65;70.38
50590;BME280;36547;50.514;30.840;2024-03-08T04:04:55;100788.93;;;-2.65;70.65
50590;BME280;36547;50.514;30.840;2024-03-08T04:05:57;100786.37;;;-2.62;70.92
50590;BME280;36547;50.514;30.840;2024-03-08T04:06:59;100782.87;;;-2.64;70.93
50590;BME280;36547;50.514;30.840;2024-03-08T04:08:02;100787.23;;;-2.63;71.01
50590;BME280;36547;50.514;30.840;2024-03-08T04:09:04;100782.87;;;-2.64;70.92
50590;BME280;36547;50.514;30.840;2024-03-08T04:10:08;100786.28;;;-2.68;70.78
50590;BME280;36547;50.514;30.840;2024-03-08T04:11:11;100784.58;;;-2.66;70.96
50590;BME280;36547;50.514;30.840;2024-03-08T04:12:14;100789.78;;;-2.66;71.07
50590;BME280;36547;50.514;30.840;2024-03-08T04:13:16;100782.87;;;-2.64;71.37
50590;BME280;36547;50.514;30.840;2024-03-08T04:14:19;100781.17;;;-2.62;71.37
50590;BME280;36547;50.514;30.840;2024-03-08T04:15:21;100785.52;;;-2.61;71.33
50590;BME280;36547;50.514;30.840;2024-03-08T04:16:23;100779.47;;;-2.57;71.51
50590;BME280;36547;50.514;30.840;2024-03-08T04:17:26;100773.42;;;-2.56;71.60
50590;BME280;36547;50.514;30.840;2024-03-08T04:18:28;100774.31;;;-2.54;71.59
50590;BME280;36547;50.514;30.840;2024-03-08T04:19:30;100774.31;;;-2.54;71.44
50590;BME280;36547;50.514;30.840;2024-03-08T04:20:32;100777.81;;;-2.52;71.54
50590;BME280;36547;50.514;30.840;2024-03-08T04:21:34;100778.66;;;-2.53;71.55
50590;BME280;36547;50.514;30.840;2024-03-08T04:22:37;100773.50;;;-2.50;71.66
50590;BME280;36547;50.514;30.840;2024-03-08T04:23:40;100781.34;;;-2.47;71.59
50590;BME280;36547;50.514;30.840;2024-03-08T04:24:43;100772.69;;;-2.46;71.54
50590;BME280;36547;50.514;30.840;2024-03-08T04:25:46;100776.15;;;-2.44;71.51
50590;BME280;36547;50.514;30.840;2024-03-08T04:26:48;100776.15;;;-2.44;71.46
50590;BME280;36547;50.514;30.840;2024-03-08T04:27:50;100777.02;;;-2.43;71.31
50590;BME280;36547;50.514;30.840;2024-03-08T04:28:53;100768.36;;;-2.42;71.21
50590;BME280;36547;50.514;30.840;2024-03-08T04:29:55;100774.44;;;-2.42;71.03
50590;BME280;36547;50.514;30.840;2024-03-08T04:30:58;100767.48;;;-2.43;71.10
50590;BME280;36547;50.514;30.840;2024-03-08T04:32:03;100767.48;;;-2.43;71.19
50590;BME280;36547;50.514;30.840;2024-03-08T04:33:06;100770.98;;;-2.41;71.29
50590;BME280;36547;50.514;30.840;2024-03-08T04:34:08;100766.66;;;-2.40;71.25
50590;BME280;36547;50.514;30.840;2024-03-08T04:35:10;100764.97;;;-2.37;71.29
50590;BME280;36547;50.514;30.840;2024-03-08T04:36:13;100764.14;;;-2.33;71.24
50590;BME280;36547;50.514;30.840;2024-03-08T04:37:16;100770.21;;;-2.31;71.08
50590;BME280;36547;50.514;30.840;2024-03-08T04:38:18;100762.41;;;-2.31;70.96
50590;BME280;36547;50.514;30.840;2024-03-08T04:39:20;100765.89;;;-2.32;70.94
50590;BME280;36547;50.514;30.840;2024-03-08T04:40:24;100762.41;;;-2.31;70.83
50590;BME280;36547;50.514;30.840;2024-03-08T04:41:26;100769.36;;;-2.30;70.89
50590;BME280;36547;50.514;30.840;2024-03-08T04:42:29;100765.89;;;-2.32;70.87
50590;BME280;36547;50.514;30.840;2024-03-08T04:43:33;100771.10;;;-2.32;70.92
50590;BME280;36547;50.514;30.840;2024-03-08T04:44:37;100771.11;;;-2.29;70.98
50590;BME280;36547;50.514;30.840;2024-03-08T04:45:39;100767.64;;;-2.28;70.92
50590;BME280;36547;50.514;30.840;2024-03-08T04:46:42;100771.98;;;-2.28;70.80
50590;BME280;36547;50.514;30.840;2024-03-08T04:47:44;100765.06;;;-2.26;70.85
50590;BME280;36547;50.514;30.840;2024-03-08T04:48:47;100766.79;;;-2.27;70.78
50590;BME280;36547;50.514;30.840;2024-03-08T04:49:49;100767.66;;;-2.26;70.71
50590;BME280;36547;50.514;30.840;2024-03-08T04:50:51;100771.14;;;-2.26;70.76
50590;BME280;36547;50.514;30.840;2024-03-08T04:51:53;100774.59;;;-2.27;70.78
50590;BME280;36547;50.514;30.840;2024-03-08T04:52:55;100766.77;;;-2.28;70.81
50590;BME280;36547;50.514;30.840;2024-03-08T04:53:57;100773.70;;;-2.29;70.79
50590;BME280;36547;50.514;30.840;2024-03-08T04:55:01;100770.21;;;-2.31;70.80
50590;BME280;36547;50.514;30.840;2024-03-08T04:56:04;100772.83;;;-2.29;70.89
50590;BME280;36547;50.514;30.840;2024-03-08T04:57:06;100771.14;;;-2.26;70.96
50590;BME280;36547;50.514;30.840;2024-03-08T04:58:10;100767.72;;;-2.22;71.04
50590;BME280;36547;50.514;30.840;2024-03-08T04:59:13;100767.76;;;-2.19;71.03
50590;BME280;36547;50.514;30.840;2024-03-08T05:00:16;100772.11;;;-2.18;70.87
50590;BME280;36547;50.514;30.840;2024-03-08T05:01:19;100765.17;;;-2.17;70.81
50590;BME280;36547;50.514;30.840;2024-03-08T05:02:21;100764.30;;;-2.18;70.81
50590;BME280;36547;50.514;30.840;2024-03-08T05:03:23;100770.36;;;-2.16;70.78
50590;BME280;36547;50.514;30.840;2024-03-08T05:04:26;100763.45;;;-2.17;70.84
50590;BME280;36547;50.514;30.840;2024-03-08T05:05:28;100762.55;;;-2.16;70.84
50590;BME280;36547;50.514;30.840;2024-03-08T05:06:30;100766.06;;;-2.12;70.91
50590;BME280;36547;50.514;30.840;2024-03-08T05:07:33;100768.69;;;-2.10;71.00
50590;BME280;36547;50.514;30.840;2024-03-08T05:08:36;100767.83;;;-2.09;71.08
50590;BME280;36547;50.514;30.840;2024-03-08T05:09:38;100770.47;;;-2.06;71.01
50590;BME280;36547;50.514;30.840;2024-03-08T05:10:41;100770.47;;;-2.06;71.03
50590;BME280;36547;50.514;30.840;2024-03-08T05:11:44;100765.30;;;-2.03;71.09
50590;BME280;36547;50.514;30.840;2024-03-08T05:12:46;100763.57;;;-2.00;71.12
50590;BME280;36547;50.514;30.840;2024-03-08T05:13:48;100769.65;;;-1.99;71.16
50590;BME280;36547;50.514;30.840;2024-03-08T05:14:51;100774.03;;;-1.95;71.19
50590;BME280;36547;50.514;30.840;2024-03-08T05:15:53;100767.97;;;-1.94;71.21
50590;BME280;36547;50.514;30.840;2024-03-08T05:16:56;100766.29;;;-1.89;71.28
50590;BME280;36547;50.514;30.840;2024-03-08T05:17:58;100768.91;;;-1.88;71.33
50590;BME280;36547;50.514;30.840;2024-03-08T05:19:01;100765.43;;;-1.85;71.37
50590;BME280;36547;50.514;30.840;2024-03-08T05:20:04;100764.58;;;-1.84;71.40
50590;BME280;36547;50.514;30.840;2024-03-08T05:21:06;100762.86;;;-1.82;71.47
50590;BME280;36547;50.514;30.840;2024-03-08T05:22:08;100756.81;;;-1.80;71.51
50590;BME280;36547;50.514;30.840;2024-03-08T05:23:11;100761.17;;;-1.77;71.58
50590;BME280;36547;50.514;30.840;2024-03-08T05:24:13;100769.02;;;-1.74;71.62